createdAt,value
2019-02-08T00:00:25.126Z,13.17
2019-02-08T00:02:53.804Z,20.53
2019-02-08T00:05:22.646Z,16.00
2019-02-08T00:07:51.283Z,20.67
2019-02-08T00:10:20.758Z,17.30
2019-02-08T00:12:49.269Z,18.63
2019-02-08T00:15:20.122Z,21.17
2019-02-08T00:17:49.206Z,19.70
2019-02-08T00:20:21.405Z,23.93
2019-02-08T00:22:49.983Z,19.73
2019-02-08T00:25:22.544Z,16.07
2019-02-08T00:27:51.204Z,18.20
2019-02-08T00:30:25.436Z,17.67
2019-02-08T00:32:53.962Z,14.13
2019-02-08T00:35:23.682Z,18.20
2019-02-08T00:37:52.180Z,19.03
2019-02-08T00:40:22.760Z,15.57
2019-02-08T00:42:51.502Z,13.07
2019-02-08T00:45:21.338Z,19.53
2019-02-08T00:47:49.996Z,17.33
2019-02-08T00:50:21.556Z,18.63
2019-02-08T00:52:49.981Z,16.07
2019-02-08T00:55:18.883Z,14.40
2019-02-08T00:57:47.452Z,16.27
2019-02-08T01:00:17.195Z,17.03
2019-02-08T01:02:49.897Z,18.13
2019-02-08T01:05:20.483Z,15.57
2019-02-08T01:07:49.455Z,13.97
2019-02-08T01:10:23.605Z,16.07
2019-02-08T01:12:52.297Z,13.03
2019-02-08T01:15:22.403Z,16.50
2019-02-08T01:17:50.971Z,15.77
2019-02-08T01:20:22.086Z,15.07
2019-02-08T01:22:50.571Z,13.93
2019-02-08T01:25:21.143Z,16.50
2019-02-08T01:27:50.417Z,16.43
2019-02-08T01:30:21.153Z,10.27
2019-02-08T01:32:50.007Z,15.50
2019-02-08T01:35:19.968Z,17.20
2019-02-08T01:37:48.583Z,19.37
2019-02-08T01:40:31.834Z,15.40
2019-02-08T01:43:00.422Z,15.40
2019-02-08T01:45:30.864Z,15.97
2019-02-08T01:47:59.788Z,17.13
2019-02-08T01:50:29.958Z,14.57
2019-02-08T01:52:59.504Z,15.80
2019-02-08T01:55:28.375Z,14.80
2019-02-08T01:57:57.961Z,18.03
2019-02-08T02:00:35.517Z,14.07
2019-02-08T02:03:05.947Z,19.33
2019-02-08T02:05:34.342Z,17.60
2019-02-08T02:08:02.915Z,19.57
2019-02-08T02:10:36.673Z,15.03
2019-02-08T02:13:06.746Z,18.67
2019-02-08T02:15:35.427Z,15.83
2019-02-08T02:18:04.679Z,15.70
2019-02-08T02:20:35.322Z,21.43
2019-02-08T02:23:04.337Z,15.43
2019-02-08T02:25:32.758Z,15.50
2019-02-08T02:28:01.161Z,15.73
2019-02-08T02:30:34.813Z,14.23
2019-02-08T02:33:03.550Z,18.37
2019-02-08T02:35:32.067Z,16.90
2019-02-08T02:38:00.650Z,15.83
2019-02-08T02:40:29.126Z,12.17
2019-02-08T02:42:57.711Z,13.40
2019-02-08T02:45:38.095Z,14.63
2019-02-08T02:48:07.992Z,16.53
2019-02-08T02:50:36.580Z,19.93
2019-02-08T02:53:05.467Z,16.00
2019-02-08T02:55:34.179Z,12.60
2019-02-08T02:58:02.660Z,15.90
2019-02-08T03:00:43.094Z,13.70
2019-02-08T03:03:12.302Z,12.40
2019-02-08T03:05:41.276Z,20.00
2019-02-08T03:08:11.484Z,17.23
2019-02-08T03:10:39.962Z,10.07
2019-02-08T03:13:08.643Z,12.63
2019-02-08T03:15:37.140Z,13.77
2019-02-08T03:18:06.250Z,14.47
2019-02-08T03:20:34.719Z,16.13
2019-02-08T03:23:03.401Z,17.03
2019-02-08T03:25:31.975Z,13.10
2019-02-08T03:28:01.071Z,16.43
2019-02-08T03:30:32.736Z,10.90
2019-02-08T03:33:01.316Z,15.63
2019-02-08T03:35:30.390Z,14.80
2019-02-08T03:37:58.811Z,10.93
2019-02-08T03:40:29.023Z,15.63
2019-02-08T03:42:57.665Z,18.90
2019-02-08T03:45:27.942Z,13.10
2019-02-08T03:47:56.451Z,16.00
2019-02-08T03:50:25.610Z,15.63
2019-02-08T03:52:54.779Z,17.70
2019-02-08T03:55:24.752Z,16.63
2019-02-08T03:57:53.272Z,14.97
2019-02-08T04:00:28.608Z,12.67
2019-02-08T04:02:57.104Z,13.10
2019-02-08T04:05:25.949Z,13.77
2019-02-08T04:07:54.391Z,14.43
2019-02-08T04:10:23.156Z,15.07
2019-02-08T04:12:51.756Z,15.70
2019-02-08T04:15:22.617Z,17.93
2019-02-08T04:17:51.468Z,13.60
2019-02-08T04:20:26.521Z,18.00
2019-02-08T04:22:56.101Z,16.17
2019-02-08T04:25:25.661Z,17.47
2019-02-08T04:27:55.193Z,15.17
2019-02-08T04:30:28.620Z,22.20
2019-02-08T04:32:58.431Z,20.93
2019-02-08T04:35:27.520Z,20.10
2019-02-08T04:37:56.018Z,18.73
2019-02-08T04:40:25.929Z,21.53
2019-02-08T04:42:54.557Z,23.27
2019-02-08T04:45:23.459Z,19.30
2019-02-08T04:47:52.153Z,19.03
2019-02-08T04:50:27.468Z,18.70
2019-02-08T04:52:56.692Z,19.70
2019-02-08T04:55:25.342Z,22.50
2019-02-08T04:57:53.927Z,21.63
2019-02-08T05:00:34.250Z,20.57
2019-02-08T05:03:04.437Z,15.13
2019-02-08T05:05:33.005Z,23.03
2019-02-08T05:08:01.678Z,21.80
2019-02-08T05:10:32.827Z,16.73
2019-02-08T05:13:01.814Z,19.43
2019-02-08T05:15:30.348Z,19.07
2019-02-08T05:17:58.873Z,20.03
2019-02-08T05:20:29.981Z,18.03
2019-02-08T05:22:59.079Z,16.03
2019-02-08T05:25:27.789Z,17.33
2019-02-08T05:27:56.318Z,17.27
2019-02-08T05:30:27.358Z,17.87
2019-02-08T05:32:55.776Z,17.57
2019-02-08T05:35:24.510Z,20.63
2019-02-08T05:37:53.070Z,19.40
2019-02-08T05:40:22.035Z,17.50
2019-02-08T05:42:50.844Z,18.80
2019-02-08T05:45:21.387Z,15.63
2019-02-08T05:47:49.786Z,20.13
2019-02-08T05:50:20.892Z,24.70
2019-02-08T05:52:49.841Z,19.80
2019-02-08T05:55:20.934Z,23.57
2019-02-08T05:57:49.722Z,21.43
2019-02-08T06:00:34.458Z,18.93
2019-02-08T06:03:02.937Z,21.50
2019-02-08T06:05:31.626Z,17.70
2019-02-08T06:08:00.165Z,19.27
2019-02-08T06:10:28.598Z,16.07
2019-02-08T06:12:57.081Z,20.17
2019-02-08T06:15:26.172Z,17.37
2019-02-08T06:17:54.765Z,18.07
2019-02-08T06:20:27.343Z,23.77
2019-02-08T06:22:55.855Z,22.50
2019-02-08T06:25:25.238Z,29.90
2019-02-08T06:27:53.867Z,19.67
2019-02-08T06:30:25.078Z,13.40
2019-02-08T06:32:53.837Z,16.20
2019-02-08T06:35:25.577Z,18.50
2019-02-08T06:37:54.247Z,14.73
2019-02-08T06:40:25.038Z,16.97
2019-02-08T06:42:54.107Z,17.87
2019-02-08T06:45:25.045Z,18.50
2019-02-08T06:47:54.060Z,25.83
2019-02-08T06:50:25.287Z,19.27
2019-02-08T06:52:54.151Z,24.83
2019-02-08T06:55:23.109Z,16.37
2019-02-08T06:58:11.617Z,14.67
2019-02-08T07:00:41.656Z,17.97
2019-02-08T07:03:14.770Z,14.87
2019-02-08T07:05:50.957Z,15.07
2019-02-08T07:08:30.157Z,13.57
2019-02-08T07:11:15.167Z,16.80
2019-02-08T07:13:50.956Z,15.47
2019-02-08T07:16:37.597Z,15.50
2019-02-08T07:19:14.220Z,21.63
2019-02-08T07:21:44.297Z,16.50
2019-02-08T07:24:20.508Z,17.63
2019-02-08T07:26:50.776Z,14.63
2019-02-08T07:29:21.020Z,11.67
2019-02-08T07:32:09.414Z,15.93
2019-02-08T07:34:39.824Z,13.70
2019-02-08T07:37:12.984Z,15.97
2019-02-08T07:39:46.138Z,19.37
2019-02-08T07:42:16.430Z,15.17
2019-02-08T07:44:54.332Z,15.53
2019-02-08T07:47:25.396Z,17.43
2019-02-08T07:49:55.885Z,18.70
2019-02-08T07:52:38.250Z,15.63
2019-02-08T07:55:14.087Z,17.13
2019-02-08T07:57:47.233Z,15.60
2019-02-08T08:00:34.732Z,19.00
2019-02-08T08:03:22.850Z,17.43
2019-02-08T08:06:01.923Z,18.00
2019-02-08T08:08:35.495Z,19.50
2019-02-08T08:11:12.303Z,17.43
2019-02-08T08:13:42.472Z,14.97
2019-02-08T08:16:22.102Z,13.10
2019-02-08T08:18:53.261Z,13.30
2019-02-08T08:21:23.427Z,14.40
2019-02-08T08:23:54.113Z,16.73
2019-02-08T08:26:27.820Z,24.80
2019-02-08T08:29:03.432Z,17.57
2019-02-08T08:31:36.767Z,16.63
2019-02-08T08:34:11.212Z,21.83
2019-02-08T08:36:59.474Z,13.00
2019-02-08T08:39:33.836Z,14.70
2019-02-08T08:42:17.550Z,17.53
2019-02-08T08:45:15.991Z,17.77
2019-02-08T08:48:03.985Z,16.27
2019-02-08T08:50:51.927Z,13.60
2019-02-08T08:53:38.804Z,12.13
2019-02-08T08:56:19.136Z,14.30
2019-02-08T08:59:07.391Z,12.70
2019-02-08T09:02:01.090Z,17.37
2019-02-08T09:04:49.152Z,14.80
2019-02-08T09:07:26.203Z,12.37
2019-02-08T09:10:06.876Z,16.40
2019-02-08T09:12:44.316Z,11.20
2019-02-08T09:15:27.466Z,14.87
2019-02-08T09:18:16.382Z,12.87
2019-02-08T09:21:07.734Z,11.80
2019-02-08T09:23:58.644Z,11.13
2019-02-08T09:26:48.668Z,12.37
2019-02-08T09:29:42.794Z,15.90
2019-02-08T09:32:31.607Z,11.13
2019-02-08T09:35:30.596Z,11.80
2019-02-08T09:38:26.224Z,13.33
2019-02-08T09:41:24.907Z,17.80
2019-02-08T09:44:20.740Z,17.70
2019-02-08T09:47:07.427Z,14.03
2019-02-08T09:49:39.086Z,12.97
2019-02-08T09:52:47.462Z,13.67
2019-02-08T09:55:47.540Z,12.57
2019-02-08T09:58:42.936Z,12.13
2019-02-08T10:01:32.220Z,10.77
2019-02-08T10:04:31.931Z,10.33
2019-02-08T10:07:15.518Z,13.00
2019-02-08T10:10:02.212Z,10.10
2019-02-08T10:13:02.782Z,9.83
2019-02-08T10:15:40.122Z,8.10
2019-02-08T10:18:23.825Z,8.97
2019-02-08T10:21:14.695Z,12.73
2019-02-08T10:23:52.194Z,14.80
2019-02-08T10:26:43.300Z,10.80
2019-02-08T10:29:35.156Z,11.60
2019-02-08T10:32:35.848Z,13.13
2019-02-08T10:35:24.242Z,9.80
2019-02-08T10:38:12.389Z,13.30
2019-02-08T10:40:52.514Z,14.23
2019-02-08T10:43:43.464Z,13.07
2019-02-08T10:46:15.119Z,15.47
2019-02-08T10:49:03.187Z,15.67
2019-02-08T10:52:00.447Z,17.23
2019-02-08T10:54:53.334Z,10.33
2019-02-08T10:57:25.188Z,12.03
2019-02-08T11:00:30.459Z,10.67
2019-02-08T11:03:19.898Z,11.27
2019-02-08T11:05:54.146Z,12.10
2019-02-08T11:08:58.980Z,17.00
2019-02-08T11:11:53.334Z,8.27
2019-02-08T11:14:37.167Z,8.07
2019-02-08T11:17:17.461Z,10.93
2019-02-08T11:19:49.000Z,12.07
2019-02-08T11:22:17.586Z,17.43
2019-02-08T11:24:46.154Z,10.40
2019-02-08T11:27:14.816Z,16.47
2019-02-08T11:29:43.422Z,9.83
2019-02-08T11:32:12.064Z,7.93
2019-02-08T11:34:40.544Z,9.53
2019-02-08T11:37:09.174Z,12.90
2019-02-08T11:39:37.742Z,16.17
2019-02-08T11:42:06.274Z,8.90
2019-02-08T11:44:34.748Z,9.33
2019-02-08T11:47:03.285Z,9.60
2019-02-08T11:49:31.768Z,10.57
2019-02-08T11:52:00.420Z,12.73
2019-02-08T11:54:28.859Z,10.77
2019-02-08T11:56:57.367Z,13.50
2019-02-08T11:59:26.104Z,9.33
2019-02-08T12:01:54.758Z,7.23
2019-02-08T12:04:23.225Z,11.13
2019-02-08T12:06:51.796Z,12.07
2019-02-08T12:09:20.318Z,11.83
2019-02-08T12:11:48.918Z,8.33
2019-02-08T12:14:17.344Z,11.53
2019-02-08T12:16:45.903Z,6.60
2019-02-08T12:19:14.564Z,14.20
2019-02-08T12:21:43.081Z,10.20
2019-02-08T12:24:11.699Z,10.63
2019-02-08T12:26:40.229Z,7.07
2019-02-08T12:29:08.967Z,8.40
2019-02-08T12:31:37.568Z,10.97
2019-02-08T12:34:06.351Z,15.63
2019-02-08T12:36:34.929Z,10.70
2019-02-08T12:39:05.103Z,12.30
2019-02-08T12:41:33.664Z,9.10
2019-02-08T12:44:02.168Z,9.63
2019-02-08T12:46:33.841Z,9.33
2019-02-08T12:49:02.335Z,9.97
2019-02-08T12:51:31.001Z,13.13
2019-02-08T12:53:59.491Z,9.37
2019-02-08T12:56:27.998Z,8.40
2019-02-08T12:58:56.554Z,5.77
2019-02-08T13:01:25.106Z,9.90
2019-02-08T13:03:53.891Z,7.63
2019-02-08T13:06:22.348Z,8.73
2019-02-08T13:08:50.954Z,10.03
2019-02-08T13:11:19.514Z,11.00
2019-02-08T13:13:47.971Z,10.90
2019-02-08T13:16:16.502Z,7.87
2019-02-08T13:18:45.129Z,7.93
2019-02-08T13:21:13.778Z,5.97
2019-02-08T13:23:42.187Z,8.47
2019-02-08T13:26:10.814Z,8.10
2019-02-08T13:28:39.255Z,10.03
2019-02-08T13:31:07.874Z,6.60
2019-02-08T13:33:36.426Z,8.87
2019-02-08T13:36:07.954Z,9.93
2019-02-08T13:38:36.359Z,5.50
2019-02-08T13:41:04.857Z,8.27
2019-02-08T13:43:33.282Z,8.20
2019-02-08T13:46:01.840Z,5.93
2019-02-08T13:48:30.440Z,14.90
2019-02-08T13:50:58.990Z,6.37
2019-02-08T13:53:27.545Z,5.73
2019-02-08T13:55:57.386Z,8.40
2019-02-08T13:58:25.996Z,10.67
2019-02-08T14:00:54.638Z,11.03
2019-02-08T14:03:23.050Z,15.90
2019-02-08T14:05:51.597Z,14.37
2019-02-08T14:08:20.206Z,8.53
2019-02-08T14:10:48.656Z,9.70
2019-02-08T14:13:17.284Z,14.10
2019-02-08T14:15:45.791Z,8.53
2019-02-08T14:18:14.325Z,7.83
2019-02-08T14:20:42.976Z,7.60
2019-02-08T14:23:11.578Z,8.77
2019-02-08T14:25:40.264Z,10.00
2019-02-08T14:28:08.668Z,8.13
2019-02-08T14:30:42.800Z,7.80
2019-02-08T14:33:11.508Z,7.23
2019-02-08T14:35:39.990Z,12.50
2019-02-08T14:38:11.334Z,7.90
2019-02-08T14:40:39.773Z,12.23
2019-02-08T14:43:08.283Z,7.37
2019-02-08T14:45:36.946Z,7.70
2019-02-08T14:48:05.840Z,10.77
2019-02-08T14:50:34.425Z,9.50
2019-02-08T14:53:03.051Z,9.00
2019-02-08T14:55:31.672Z,6.93
2019-02-08T14:58:02.814Z,7.10
2019-02-08T15:00:31.374Z,8.23
2019-02-08T15:02:59.855Z,9.00
2019-02-08T15:05:28.412Z,7.23
2019-02-08T15:07:57.694Z,6.47
2019-02-08T15:10:31.948Z,15.00
2019-02-08T15:13:00.976Z,11.10
2019-02-08T15:15:29.536Z,6.40
2019-02-08T15:17:57.959Z,9.77
2019-02-08T15:20:31.620Z,7.80
2019-02-08T15:23:00.250Z,7.30
2019-02-08T15:25:29.122Z,8.40
2019-02-08T15:27:57.594Z,10.60
2019-02-08T15:30:31.772Z,6.90
2019-02-08T15:33:00.297Z,8.87
2019-02-08T15:35:30.630Z,7.50
2019-02-08T15:37:59.200Z,10.10
2019-02-08T15:40:42.327Z,8.73
2019-02-08T15:43:12.273Z,7.43
2019-02-08T15:45:42.264Z,11.00
2019-02-08T15:48:10.681Z,10.37
2019-02-08T15:50:39.328Z,8.50
2019-02-08T15:53:07.810Z,9.17
2019-02-08T15:55:45.114Z,8.93
2019-02-08T15:58:13.781Z,7.23
2019-02-08T16:00:42.991Z,12.40
2019-02-08T16:03:12.233Z,8.23
2019-02-08T16:05:40.922Z,6.80
2019-02-08T16:08:09.788Z,9.27
2019-02-08T16:10:38.342Z,7.20
2019-02-08T16:13:06.934Z,6.37
2019-02-08T16:15:35.342Z,7.83
2019-02-08T16:18:03.808Z,8.07
2019-02-08T16:20:32.292Z,10.80
2019-02-08T16:23:01.400Z,5.73
2019-02-08T16:25:31.299Z,7.97
2019-02-08T16:27:59.758Z,7.70
2019-02-08T16:30:33.885Z,9.73
2019-02-08T16:33:02.640Z,9.93
2019-02-08T16:35:31.299Z,8.90
2019-02-08T16:37:59.713Z,11.77
2019-02-08T16:40:31.386Z,5.73
2019-02-08T16:42:59.982Z,13.53
2019-02-08T16:45:36.308Z,7.80
2019-02-08T16:48:09.933Z,11.53
2019-02-08T16:50:38.506Z,8.03
2019-02-08T16:53:08.242Z,9.63
2019-02-08T16:55:36.836Z,8.80
2019-02-08T16:58:07.522Z,9.80
2019-02-08T17:00:38.104Z,11.47
2019-02-08T17:03:09.380Z,10.80
2019-02-08T17:05:37.910Z,9.37
2019-02-08T17:08:06.769Z,12.00
2019-02-08T17:10:35.370Z,7.33
2019-02-08T17:13:04.776Z,10.93
2019-02-08T17:15:35.387Z,9.37
2019-02-08T17:18:04.054Z,8.40
2019-02-08T17:20:43.714Z,10.97
2019-02-08T17:23:12.192Z,7.90
2019-02-08T17:25:40.658Z,5.63
2019-02-08T17:28:09.943Z,7.70
2019-02-08T17:30:38.644Z,11.30
2019-02-08T17:33:08.563Z,9.37
2019-02-08T17:35:37.081Z,13.40
2019-02-08T17:38:05.780Z,6.87
2019-02-08T17:40:42.765Z,10.00
2019-02-08T17:43:11.374Z,13.53
2019-02-08T17:45:39.918Z,8.67
2019-02-08T17:48:11.334Z,7.70
2019-02-08T17:50:39.726Z,8.23
2019-02-08T17:53:08.296Z,9.83
2019-02-08T17:55:36.880Z,9.13
2019-02-08T17:58:05.632Z,9.53
2019-02-08T18:00:38.706Z,10.97
2019-02-08T18:03:07.295Z,6.40
2019-02-08T18:05:35.818Z,9.13
2019-02-08T18:08:04.671Z,11.63
2019-02-08T18:10:33.269Z,10.90
2019-02-08T18:13:01.695Z,11.00
2019-02-08T18:15:30.126Z,9.77
2019-02-08T18:17:58.559Z,12.77
2019-02-08T18:20:38.711Z,10.70
2019-02-08T18:23:07.520Z,10.37
2019-02-08T18:25:35.980Z,13.03
2019-02-08T18:28:10.819Z,8.77
2019-02-08T18:30:35.510Z,9.73
2019-02-08T18:33:04.394Z,12.67
2019-02-08T18:35:32.887Z,7.17
2019-02-08T18:38:01.569Z,9.93
2019-02-08T18:40:30.213Z,10.30
2019-02-08T18:42:58.839Z,8.87
2019-02-08T18:45:31.956Z,9.37
2019-02-08T18:48:00.708Z,5.50
2019-02-08T18:50:44.292Z,11.10
2019-02-08T18:53:12.704Z,8.60
2019-02-08T18:55:41.185Z,12.33
2019-02-08T18:58:09.949Z,11.10
2019-02-08T19:00:41.124Z,13.27
2019-02-08T19:03:09.635Z,9.13
2019-02-08T19:05:38.523Z,12.57
2019-02-08T19:08:07.181Z,12.13
2019-02-08T19:10:35.925Z,7.57
2019-02-08T19:13:05.552Z,7.50
2019-02-08T19:15:34.104Z,8.47
2019-02-08T19:18:02.783Z,9.63
2019-02-08T19:20:31.908Z,10.70
2019-02-08T19:23:00.530Z,9.93
2019-02-08T19:25:39.150Z,13.53
2019-02-08T19:28:08.070Z,14.53
2019-02-08T19:30:39.647Z,9.40
2019-02-08T19:33:08.556Z,9.83
2019-02-08T19:35:37.630Z,8.70
2019-02-08T19:38:07.835Z,11.17
2019-02-08T19:40:47.321Z,9.97
2019-02-08T19:43:16.202Z,7.50
2019-02-08T19:45:44.963Z,14.17
2019-02-08T19:48:13.656Z,8.93
2019-02-08T19:50:44.861Z,13.97
2019-02-08T19:53:13.642Z,8.57
2019-02-08T19:55:42.519Z,10.13
2019-02-08T19:58:13.147Z,15.47
2019-02-08T20:00:43.610Z,7.47
2019-02-08T20:03:12.686Z,10.17
2019-02-08T20:05:41.353Z,8.30
2019-02-08T20:08:14.235Z,13.03
2019-02-08T20:10:49.226Z,16.73
2019-02-08T20:13:17.858Z,10.43
2019-02-08T20:15:48.561Z,11.37
2019-02-08T20:18:17.391Z,8.87
2019-02-08T20:20:46.004Z,9.63
2019-02-08T20:23:14.774Z,7.73
2019-02-08T20:25:43.598Z,11.80
2019-02-08T20:28:12.432Z,6.43
2019-02-08T20:30:41.239Z,12.77
2019-02-08T20:33:10.111Z,10.40
2019-02-08T20:35:38.999Z,11.00
2019-02-08T20:38:07.961Z,9.70
2019-02-08T20:40:41.991Z,8.13
2019-02-08T20:43:10.655Z,9.40
2019-02-08T20:45:39.721Z,13.03
2019-02-08T20:48:17.495Z,10.90
2019-02-08T20:50:46.227Z,10.90
2019-02-08T20:53:15.041Z,10.67
2019-02-08T20:55:43.914Z,11.17
2019-02-08T20:58:13.464Z,9.30
2019-02-08T21:00:45.148Z,11.30
2019-02-08T21:03:14.533Z,9.97
2019-02-08T21:05:43.729Z,8.30
2019-02-08T21:08:13.146Z,6.73
2019-02-08T21:10:41.945Z,10.20
2019-02-08T21:13:11.246Z,10.67
2019-02-08T21:15:39.824Z,6.43
2019-02-08T21:18:09.310Z,8.73
2019-02-08T21:20:38.101Z,10.13
2019-02-08T21:23:07.318Z,9.53
2019-02-08T21:25:38.341Z,11.50
2019-02-08T21:28:07.350Z,8.47
2019-02-08T21:30:35.891Z,10.73
2019-02-08T21:33:06.313Z,16.27
2019-02-08T21:35:36.243Z,17.53
2019-02-08T21:38:06.176Z,13.57
2019-02-08T21:40:35.200Z,11.50
2019-02-08T21:43:04.620Z,11.03
2019-02-08T21:45:38.584Z,12.17
2019-02-08T21:48:08.720Z,9.10
2019-02-08T21:50:37.465Z,9.83
2019-02-08T21:53:06.145Z,8.30
2019-02-08T21:55:35.166Z,7.03
2019-02-08T21:58:04.164Z,7.90
2019-02-08T22:00:38.731Z,10.90
2019-02-08T22:03:07.896Z,13.33
2019-02-08T22:05:41.597Z,8.03
2019-02-08T22:08:10.058Z,9.80
2019-02-08T22:10:38.755Z,11.23
2019-02-08T22:13:07.589Z,8.63
2019-02-08T22:15:41.497Z,12.13
2019-02-08T22:18:10.188Z,11.53
2019-02-08T22:20:39.745Z,10.00
2019-02-08T22:23:08.626Z,11.00
2019-02-08T22:25:37.234Z,11.67
2019-02-08T22:28:06.829Z,13.50
2019-02-08T22:30:35.690Z,11.77
2019-02-08T22:33:09.346Z,8.93
2019-02-08T22:35:38.469Z,9.60
2019-02-08T22:38:09.127Z,10.87
2019-02-08T22:40:37.841Z,12.87
2019-02-08T22:43:06.792Z,9.27
2019-02-08T22:45:42.987Z,10.07
2019-02-08T22:48:11.609Z,9.60
2019-02-08T22:50:40.099Z,9.07
2019-02-08T22:53:09.378Z,13.20
2019-02-08T22:55:38.304Z,10.80
2019-02-08T22:58:08.606Z,11.17
2019-02-08T23:00:44.630Z,9.60
2019-02-08T23:03:15.362Z,10.10
2019-02-08T23:05:45.955Z,11.83
2019-02-08T23:08:14.412Z,7.80
2019-02-08T23:10:43.231Z,14.40
2019-02-08T23:13:12.381Z,9.60
2019-02-08T23:15:40.960Z,9.07
2019-02-08T23:18:10.706Z,7.60
2019-02-08T23:20:39.513Z,11.53
2019-02-08T23:23:08.469Z,6.83
2019-02-08T23:25:36.863Z,10.73
2019-02-08T23:28:06.259Z,8.90
2019-02-08T23:30:35.228Z,11.90
2019-02-08T23:33:03.760Z,8.60
2019-02-08T23:35:32.462Z,10.73
2019-02-08T23:38:00.800Z,9.40
2019-02-08T23:40:29.508Z,9.50
2019-02-08T23:42:57.955Z,6.10
2019-02-08T23:45:26.640Z,7.00
2019-02-08T23:47:55.068Z,9.27
2019-02-08T23:50:24.630Z,8.83
2019-02-08T23:52:53.381Z,6.80
2019-02-08T23:55:26.492Z,7.40
2019-02-08T23:57:54.908Z,12.47
